createdAt,value
2023-05-07T00:03:36.571Z,100476.91
2023-05-07T00:08:39.695Z,100478.72
2023-05-07T00:13:41.308Z,100476.34
2023-05-07T00:18:42.935Z,100483.19
2023-05-07T00:23:45.938Z,100477.13
2023-05-07T00:28:47.542Z,100473.19
2023-05-07T00:33:49.180Z,100470.19
2023-05-07T00:38:52.198Z,100473.34
2023-05-07T00:43:53.853Z,100472.97
2023-05-07T00:48:55.865Z,100473.13
2023-05-07T00:53:59.104Z,100478.09
2023-05-07T00:59:02.011Z,100473.59
2023-05-07T01:04:04.085Z,100468.44
2023-05-07T01:09:07.818Z,100467.97
2023-05-07T01:14:10.257Z,100461.50
2023-05-07T01:19:13.170Z,100455.16
2023-05-07T01:24:16.406Z,100459.94
2023-05-07T01:29:18.114Z,100441.97
2023-05-07T01:34:22.808Z,100441.66
2023-05-07T01:39:27.662Z,100442.34
2023-05-07T01:44:29.716Z,100450.31
2023-05-07T01:49:31.577Z,100447.63
2023-05-07T01:54:34.614Z,100448.69
2023-05-07T01:59:36.222Z,100443.22
2023-05-07T02:04:37.918Z,100456.47
2023-05-07T02:09:40.983Z,100448.78
2023-05-07T02:14:43.060Z,100450.47
2023-05-07T02:19:44.707Z,100459.28
2023-05-07T02:24:47.656Z,100463.81
2023-05-07T02:29:49.303Z,100460.91
2023-05-07T02:34:51.399Z,100458.84
2023-05-07T02:39:54.406Z,100457.03
2023-05-07T02:44:56.023Z,100450.72
2023-05-07T02:49:57.734Z,100449.41
2023-05-07T02:55:00.826Z,100438.41
2023-05-07T03:00:12.100Z,100435.41
2023-05-07T03:05:13.916Z,100444.94
2023-05-07T03:10:17.039Z,100445.03
2023-05-07T03:15:18.964Z,100448.59
2023-05-07T03:20:20.636Z,100436.94
2023-05-07T03:25:23.713Z,100429.00
2023-05-07T03:30:25.501Z,100420.00
2023-05-07T03:35:27.271Z,100422.56
2023-05-07T03:40:30.535Z,100424.94
2023-05-07T03:45:32.207Z,100421.81
2023-05-07T03:50:33.918Z,100427.97
2023-05-07T03:55:37.019Z,100425.22
2023-05-07T04:00:38.712Z,100435.72
2023-05-07T04:05:40.361Z,100430.22
2023-05-07T04:10:43.364Z,100449.00
2023-05-07T04:15:45.005Z,100453.13
2023-05-07T04:20:46.669Z,100445.69
2023-05-07T04:25:49.719Z,100448.59
2023-05-07T04:30:51.316Z,100449.09
2023-05-07T04:35:53.120Z,100449.94
2023-05-07T04:40:56.270Z,100459.94
2023-05-07T04:45:57.982Z,100445.75
2023-05-07T04:50:59.689Z,100461.88
2023-05-07T04:56:02.713Z,100458.53
2023-05-07T05:01:04.392Z,100461.50
2023-05-07T05:06:06.301Z,100456.03
2023-05-07T05:11:09.317Z,100467.66
2023-05-07T05:16:11.014Z,100478.19
2023-05-07T05:21:12.912Z,100488.38
2023-05-07T05:26:16.028Z,100488.63
2023-05-07T05:31:17.902Z,100488.00
2023-05-07T05:36:19.724Z,100492.13
2023-05-07T05:41:22.774Z,100491.16
2023-05-07T05:46:24.600Z,100488.66
2023-05-07T05:51:26.258Z,100495.25
2023-05-07T05:56:29.462Z,100480.59
2023-05-07T06:01:31.673Z,100478.72
2023-05-07T06:06:33.298Z,100481.25
2023-05-07T06:11:36.340Z,100478.09
2023-05-07T06:16:38.002Z,100483.13
2023-05-07T06:21:40.280Z,100480.28
2023-05-07T06:26:43.307Z,100481.06
2023-05-07T06:31:45.135Z,100486.94
2023-05-07T06:36:46.777Z,100496.59
2023-05-07T06:41:49.768Z,100495.66
2023-05-07T06:46:51.383Z,100491.66
2023-05-07T06:51:52.950Z,100488.84
2023-05-07T06:56:55.981Z,100489.16
2023-05-07T07:01:57.759Z,100488.97
2023-05-07T07:06:59.534Z,100492.81
2023-05-07T07:12:02.686Z,100485.94
2023-05-07T07:17:04.309Z,100484.97
2023-05-07T07:22:06.001Z,100485.78
2023-05-07T07:27:09.047Z,100482.22
2023-05-07T07:32:10.766Z,100490.09
2023-05-07T07:37:12.377Z,100495.09
2023-05-07T07:42:18.415Z,100498.09
2023-05-07T07:47:20.444Z,100484.13
2023-05-07T07:52:22.115Z,100493.94
2023-05-07T07:57:25.198Z,100496.47
2023-05-07T08:02:26.899Z,100500.97
2023-05-07T08:07:28.574Z,100500.53
2023-05-07T08:12:31.707Z,100498.19
2023-05-07T08:17:33.353Z,100491.03
2023-05-07T08:22:35.208Z,100496.34
2023-05-07T08:27:38.254Z,100496.19
2023-05-07T08:32:39.922Z,100489.53
2023-05-07T08:37:41.730Z,100502.88
2023-05-07T08:42:45.365Z,100495.13
2023-05-07T08:47:52.732Z,100488.00
2023-05-07T08:52:54.595Z,100490.44
2023-05-07T08:58:01.836Z,100488.16
2023-05-07T09:03:03.649Z,100481.22
2023-05-07T09:08:07.351Z,100486.06
2023-05-07T09:13:12.589Z,100479.09
2023-05-07T09:18:16.742Z,100481.75
2023-05-07T09:23:18.570Z,100478.59
2023-05-07T09:28:21.564Z,100474.34
2023-05-07T09:33:28.322Z,100469.34
2023-05-07T09:38:29.970Z,100472.09
2023-05-07T09:43:34.930Z,100474.22
2023-05-07T09:48:41.801Z,100467.31
2023-05-07T09:53:44.538Z,100462.28
2023-05-07T09:58:48.064Z,100464.94
2023-05-07T10:03:51.307Z,100465.13
2023-05-07T10:08:54.407Z,100458.50
2023-05-07T10:13:57.845Z,100456.84
2023-05-07T10:18:59.907Z,100460.63
2023-05-07T10:24:05.757Z,100458.50
2023-05-07T10:29:15.773Z,100458.78
2023-05-07T10:34:21.466Z,100447.53
2023-05-07T10:39:23.874Z,100445.84
2023-05-07T10:44:30.700Z,100446.09
2023-05-07T10:49:32.415Z,100444.72
2023-05-07T10:54:45.769Z,100443.56
2023-05-07T10:59:49.316Z,100446.09
2023-05-07T11:05:21.022Z,100435.81
2023-05-07T11:10:22.993Z,100435.53
2023-05-07T11:15:40.746Z,100432.53
2023-05-07T11:20:50.453Z,100434.94
2023-05-07T11:25:52.172Z,100428.47
2023-05-07T11:30:55.597Z,100425.75
2023-05-07T11:35:57.615Z,100428.75
2023-05-07T11:41:00.429Z,100420.06
2023-05-07T11:46:11.473Z,100424.88
2023-05-07T11:51:13.451Z,100424.00
2023-05-07T11:56:16.309Z,100423.41
2023-05-07T12:01:19.394Z,100408.81
2023-05-07T12:06:21.000Z,100411.34
2023-05-07T12:11:25.293Z,100418.38
2023-05-07T12:16:29.009Z,100412.53
2023-05-07T12:21:30.797Z,100413.44
2023-05-07T12:26:32.480Z,100403.91
2023-05-07T12:31:35.626Z,100411.19
2023-05-07T12:36:38.264Z,100406.66
2023-05-07T12:41:55.820Z,100408.81
2023-05-07T12:47:02.894Z,100414.56
2023-05-07T12:52:04.796Z,100413.88
2023-05-07T12:57:07.976Z,100410.47
2023-05-07T13:02:11.166Z,100407.63
2023-05-07T13:07:12.891Z,100409.16
2023-05-07T13:12:14.520Z,100404.38
2023-05-07T13:17:17.634Z,100402.84
2023-05-07T13:22:19.297Z,100404.63
2023-05-07T13:27:21.208Z,100397.25
2023-05-07T13:32:24.450Z,100394.31
2023-05-07T13:37:26.145Z,100385.53
2023-05-07T13:42:27.765Z,100373.78
2023-05-07T13:47:30.794Z,100380.03
2023-05-07T13:52:32.415Z,100383.25
2023-05-07T13:57:34.048Z,100369.22
2023-05-07T14:02:37.177Z,100369.84
2023-05-07T14:07:38.942Z,100375.28
2023-05-07T14:12:40.698Z,100372.94
2023-05-07T14:17:44.105Z,100370.41
2023-05-07T14:22:45.741Z,100361.88
2023-05-07T14:27:50.322Z,100360.88
2023-05-07T14:32:53.349Z,100363.63
2023-05-07T14:37:55.012Z,100362.97
2023-05-07T14:42:56.627Z,100368.75
2023-05-07T14:47:59.672Z,100366.25
2023-05-07T14:53:01.419Z,100370.38
2023-05-07T14:58:03.099Z,100376.69
2023-05-07T15:03:09.003Z,100384.41
2023-05-07T15:08:10.808Z,100379.47
2023-05-07T15:13:15.951Z,100371.69
2023-05-07T15:18:22.641Z,100379.06
2023-05-07T15:23:24.723Z,100389.00
2023-05-07T15:28:26.300Z,100393.88
2023-05-07T15:33:29.319Z,100403.22
2023-05-07T15:38:30.951Z,100399.91
2023-05-07T15:43:32.586Z,100394.44
2023-05-07T15:48:35.644Z,100392.31
2023-05-07T15:53:37.318Z,100394.66
2023-05-07T15:58:38.978Z,100398.50
2023-05-07T16:03:42.279Z,100404.19
2023-05-07T16:08:44.158Z,100434.84
2023-05-07T16:13:45.797Z,100440.81
2023-05-07T16:18:48.797Z,100452.78
2023-05-07T16:23:50.650Z,100462.09
2023-05-07T16:28:52.306Z,100466.28
2023-05-07T16:33:55.328Z,100475.09
2023-05-07T16:38:57.196Z,100514.28
2023-05-07T16:44:00.826Z,100514.19
2023-05-07T16:49:03.888Z,100518.50
2023-05-07T16:54:05.592Z,100531.56
2023-05-07T16:59:07.403Z,100531.41
2023-05-07T17:04:10.447Z,100554.06
2023-05-07T17:09:12.164Z,100554.91
2023-05-07T17:14:13.760Z,100566.41
2023-05-07T17:19:16.789Z,100591.28
2023-05-07T17:24:18.437Z,100598.94
2023-05-07T17:29:20.145Z,100598.94
2023-05-07T17:34:23.365Z,100615.31
2023-05-07T17:39:25.127Z,100628.81
2023-05-07T17:44:26.697Z,100638.16
2023-05-07T17:49:29.764Z,100649.16
2023-05-07T17:54:31.399Z,100662.66
2023-05-07T17:59:34.223Z,100662.97
2023-05-07T18:04:37.296Z,100668.25
2023-05-07T18:09:38.908Z,100677.28
2023-05-07T18:14:40.555Z,100686.97
2023-05-07T18:19:43.721Z,100684.13
2023-05-07T18:24:45.337Z,100682.63
2023-05-07T18:29:47.228Z,100683.13
2023-05-07T18:34:50.388Z,100684.25
2023-05-07T18:39:51.994Z,100693.13
2023-05-07T18:44:53.765Z,100702.78
2023-05-07T18:49:56.786Z,100707.59
2023-05-07T18:54:58.577Z,100714.94
2023-05-07T19:00:00.218Z,100723.41
2023-05-07T19:05:03.602Z,100730.94
2023-05-07T19:10:08.856Z,100728.41
2023-05-07T19:15:11.362Z,100719.75
2023-05-07T19:20:14.608Z,100732.41
2023-05-07T19:25:16.360Z,100739.72
2023-05-07T19:30:18.523Z,100755.06
2023-05-07T19:35:21.903Z,100766.56
2023-05-07T19:40:23.551Z,100774.56
2023-05-07T19:45:25.321Z,100765.88
2023-05-07T19:50:28.308Z,100777.88
2023-05-07T19:55:30.046Z,100787.56
2023-05-07T20:00:31.752Z,100791.22
2023-05-07T20:05:34.742Z,100794.88
2023-05-07T20:10:36.355Z,100802.06
2023-05-07T20:15:38.224Z,100789.84
2023-05-07T20:20:41.373Z,100803.88
2023-05-07T20:25:43.204Z,100802.38
2023-05-07T20:30:45.050Z,100801.69
2023-05-07T20:35:48.096Z,100797.53
2023-05-07T20:40:49.785Z,100795.81
2023-05-07T20:45:59.060Z,100805.66
2023-05-07T20:51:03.521Z,100808.47
2023-05-07T20:56:05.331Z,100807.50
2023-05-07T21:01:07.039Z,100813.81
2023-05-07T21:06:10.269Z,100818.16
2023-05-07T21:11:11.993Z,100815.50
2023-05-07T21:16:13.982Z,100810.47
2023-05-07T21:21:17.119Z,100812.09
2023-05-07T21:31:42.486Z,100825.78
2023-05-07T21:36:45.535Z,100827.63
2023-05-07T21:41:47.213Z,100837.28
2023-05-07T21:46:48.960Z,100832.09
2023-05-07T21:51:52.046Z,100824.97
2023-05-07T21:56:53.782Z,100825.94
2023-05-07T22:01:55.591Z,100825.13
2023-05-07T22:06:58.622Z,100830.59
2023-05-07T22:12:00.336Z,100833.25
2023-05-07T22:17:02.041Z,100832.44
2023-05-07T22:22:05.118Z,100826.25
2023-05-07T22:27:06.714Z,100826.44
2023-05-07T22:32:10.437Z,100825.41
2023-05-07T22:37:14.983Z,100837.25
2023-05-07T22:42:16.670Z,100837.53
2023-05-07T22:47:18.372Z,100837.72
2023-05-07T22:52:21.337Z,100839.53
2023-05-07T22:57:23.006Z,100832.38
2023-05-07T23:02:24.799Z,100832.53
2023-05-07T23:07:27.924Z,100823.53
2023-05-07T23:12:29.539Z,100829.00
2023-05-07T23:17:31.197Z,100826.53
2023-05-07T23:22:34.218Z,100829.00
2023-05-07T23:27:35.916Z,100828.34
2023-05-07T23:32:37.840Z,100828.66
2023-05-07T23:37:42.154Z,100827.66
2023-05-07T23:42:43.889Z,100823.34
2023-05-07T23:47:45.657Z,100821.97
2023-05-07T23:52:48.829Z,100828.81
2023-05-07T23:57:50.514Z,100840.09
